Terminal Aerodrome Forecast
Issued by NWS Charleston, WV

Home | Current Version | Previous Version | Text Only | Print | Product List | Glossary On
Versions: 1 2 3 4 5 6 7 8 9 10 11 12 13 14 15 16 17 18 19 20 21 22 23 24 25
000
FTUS41 KRLX 290200 AAA
TAFPKB
TAF AMD
KPKB 290242Z 2903/2924 VRB03KT P6SM BKN080
     FM291400 18007KT P6SM BKN130
     FM291700 20012G18KT P6SM BKN090
     FM292300 20008KT P6SM BKN080=

USA.gov is the U.S. government's official web portal to all federal, state and local government web resources and services.